Time;durP1;ratioP1;P1;durP2;ratioP2;P2;SDS_P1;SDS_P2;PMS_P1;PMS_P2;Temp;Humidity;BMP_temperature;BMP_pressure;BME280_temperature;BME280_humidity;BME280_pressure;Samples;Min_cycle;Max_cycle;Signal;HPM_P1;HPM_P2
2022/08/18 00:00:12;;;;;;;75.60;51.58;;;;;;;17.82;100.00;101232.53;5055103;28;20005;-73
2022/08/18 00:02:40;;;;;;;73.38;51.53;;;;;;;17.78;100.00;101243.22;5056616;28;20035;-73
2022/08/18 00:05:06;;;;;;;73.30;50.55;;;;;;;17.77;100.00;101248.56;5057898;28;20032;-73
2022/08/18 00:07:33;;;;;;;79.10;53.92;;;;;;;17.74;100.00;101256.59;5057572;28;20033;-73
2022/08/18 00:09:59;;;;;;;76.18;52.40;;;;;;;17.74;100.00;101260.09;5030769;28;20440;-73
2022/08/18 00:12:36;;;;;;;79.43;53.50;;;;;;;17.78;100.00;101263.47;5042789;28;20029;-73
2022/08/18 00:15:03;;;;;;;75.68;51.60;;;;;;;17.81;100.00;101259.84;5050475;28;20032;-73
2022/08/18 00:17:30;;;;;;;81.40;53.85;;;;;;;17.81;100.00;101259.84;5049932;28;20024;-73
2022/08/18 00:19:55;;;;;;;73.68;51.78;;;;;;;17.85;100.00;101258.75;5052943;28;20116;-73
2022/08/18 00:22:21;;;;;;;78.65;50.42;;;;;;;17.88;100.00;101256.81;5056290;28;20108;-73
2022/08/18 00:24:49;;;;;;;75.78;50.60;;;;;;;17.86;100.00;101256.06;5057752;28;20063;-73
2022/08/18 00:27:21;;;;;;;75.15;50.13;;;;;;;17.90;100.00;101264.69;5048795;28;20100;-73
2022/08/18 00:29:46;;;;;;;74.13;49.53;;;;;;;17.91;100.00;101267.22;5047491;28;20098;-73
2022/08/18 00:32:24;;;;;;;73.40;48.80;;;;;;;17.95;100.00;101268.81;5057458;28;20460;-73
2022/08/18 00:34:51;;;;;;;74.97;50.28;;;;;;;17.96;100.00;101272.31;5057872;28;20021;-73
2022/08/18 00:37:16;;;;;;;71.55;49.65;;;;;;;17.96;100.00;101262.59;5038415;28;20116;-73
2022/08/18 00:39:42;;;;;;;74.00;50.10;;;;;;;17.99;100.00;101273.00;5043057;28;20104;-73
2022/08/18 00:42:16;;;;;;;72.75;49.15;;;;;;;17.99;100.00;101275.66;5056393;28;20377;-73
2022/08/18 00:44:42;;;;;;;75.97;50.00;;;;;;;17.99;100.00;101285.34;5045256;28;20032;-73
2022/08/18 00:47:07;;;;;;;74.20;50.13;;;;;;;18.01;100.00;101289.59;5054039;28;20127;-73
2022/08/18 00:49:32;;;;;;;73.70;49.10;;;;;;;18.04;100.00;101285.13;5050660;28;20457;-73
2022/08/18 00:51:59;;;;;;;72.07;49.80;;;;;;;18.04;100.00;101277.22;5056819;28;20017;-73
2022/08/18 00:54:29;;;;;;;73.82;51.10;;;;;;;18.05;100.00;101282.44;5043764;28;20033;-73
2022/08/18 00:57:00;;;;;;;73.72;50.15;;;;;;;18.01;100.00;101276.41;5053712;28;20102;-73
2022/08/18 00:59:36;;;;;;;70.72;49.33;;;;;;;18.00;100.00;101272.06;5053678;28;20032;-73
2022/08/18 01:02:05;;;;;;;67.93;47.38;;;;;;;17.89;100.00;101268.25;5054027;28;20035;-73
2022/08/18 01:04:37;;;;;;;67.97;47.50;;;;;;;17.77;100.00;101278.44;5044817;28;20033;-73
2022/08/18 01:07:24;;;;;;;64.47;45.92;;;;;;;17.66;100.00;101278.06;5054072;28;20477;-73
2022/08/18 01:09:51;;;;;;;64.75;46.47;;;;;;;17.63;100.00;101280.84;5054114;28;20032;-73
2022/08/18 01:12:17;;;;;;;67.97;46.33;;;;;;;17.54;100.00;101268.91;5042840;28;20072;-73
2022/08/18 01:14:43;;;;;;;70.00;47.53;;;;;;;17.50;100.00;101261.22;5048117;28;20036;-73
2022/08/18 01:22:47;;;;;;;61.80;44.75;;;;;;;17.25;100.00;101264.97;5026000;28;20060;-73
2022/08/18 01:28:01;;;;;;;69.03;45.78;;;;;;;17.15;100.00;101268.09;5054151;28;20104;-73
2022/08/18 01:30:29;;;;;;;67.40;47.30;;;;;;;17.13;100.00;101262.00;5046208;28;20031;-73
2022/08/18 01:32:54;;;;;;;70.07;46.97;;;;;;;17.09;100.00;101269.19;5045384;28;20033;-73
2022/08/18 01:35:24;;;;;;;67.93;45.63;;;;;;;17.04;100.00;101261.50;5045828;28;20204;-73
2022/08/18 01:37:50;;;;;;;67.80;44.33;;;;;;;17.04;100.00;101261.50;5053545;28;20048;-73
2022/08/18 01:40:16;;;;;;;67.85;45.75;;;;;;;17.04;100.00;101261.50;5038734;28;20053;-73
2022/08/18 01:42:44;;;;;;;64.70;45.78;;;;;;;16.99;100.00;101267.88;5050792;28;20445;-73
2022/08/18 01:45:11;;;;;;;70.20;46.17;;;;;;;16.99;100.00;101266.09;5053580;28;20025;-73
2022/08/18 01:47:39;;;;;;;67.53;47.42;;;;;;;16.96;100.00;101260.13;5046080;28;20389;-73
2022/08/18 01:50:06;;;;;;;68.43;46.13;;;;;;;16.93;100.00;101258.47;5051346;28;20025;-73
2022/08/18 01:52:34;;;;;;;69.28;47.08;;;;;;;16.96;100.00;101257.50;5044905;28;20025;-73
2022/08/18 01:55:00;;;;;;;67.20;45.55;;;;;;;16.92;100.00;101253.28;5052148;28;20025;-73
2022/08/18 01:57:25;;;;;;;67.30;44.63;;;;;;;16.84;100.00;101249.22;5049889;28;20025;-73
2022/08/18 01:59:51;;;;;;;67.25;44.35;;;;;;;16.85;100.00;101252.69;5043915;28;20057;-73
2022/08/18 02:02:23;;;;;;;67.32;44.65;;;;;;;16.85;100.00;101257.97;5050988;28;20183;-73
2022/08/18 02:05:04;;;;;;;67.10;43.22;;;;;;;16.83;100.00;101257.16;5048180;28;20025;-73
2022/08/18 02:07:29;;;;;;;71.18;45.70;;;;;;;16.78;100.00;101248.63;5048610;28;20079;-73
2022/08/18 02:09:55;;;;;;;66.15;44.03;;;;;;;16.77;100.00;101242.47;5041339;28;20457;-73
2022/08/18 02:12:20;;;;;;;68.15;45.70;;;;;;;16.71;100.00;101247.09;5052462;28;20033;-73
2022/08/18 02:14:45;;;;;;;67.32;45.22;;;;;;;16.72;100.00;101254.97;5052184;28;20071;-73
2022/08/18 02:17:12;;;;;;;69.28;44.38;;;;;;;16.73;100.00;101261.06;5053024;28;20484;-73
2022/08/18 02:19:42;;;;;;;64.80;43.10;;;;;;;16.66;100.00;101251.72;5045163;28;20063;-72
2022/08/18 02:22:10;;;;;;;66.90;43.85;;;;;;;16.66;100.00;101262.25;5051571;28;20487;-73
2022/08/18 02:24:36;;;;;;;65.45;43.10;;;;;;;16.65;100.00;101257.94;5045989;28;20045;-72
2022/08/18 02:27:01;;;;;;;67.53;42.22;;;;;;;16.61;100.00;101265.94;5052451;28;20027;-73
2022/08/18 02:29:27;;;;;;;64.13;43.17;;;;;;;16.59;100.00;101267.78;5042474;28;20033;-73
2022/08/18 02:31:52;;;;;;;64.72;42.30;;;;;;;16.60;100.00;101260.72;5046944;28;20039;-73
2022/08/18 02:34:18;;;;;;;69.47;45.50;;;;;;;16.58;100.00;101262.59;5051964;28;20104;-73
2022/08/18 02:36:43;;;;;;;70.53;43.47;;;;;;;16.56;100.00;101272.31;5047180;28;20896;-73
2022/08/18 02:39:08;;;;;;;66.60;44.35;;;;;;;16.53;100.00;101275.06;5041289;28;20377;-73
2022/08/18 02:41:35;;;;;;;69.57;45.50;;;;;;;16.49;100.00;101273.50;5051903;28;20036;-73
2022/08/18 02:44:01;;;;;;;65.13;43.15;;;;;;;16.50;100.00;101276.03;5051243;28;20049;-73
2022/08/18 02:46:26;;;;;;;66.63;43.30;;;;;;;16.51;100.00;101275.16;5048217;28;20040;-72
2022/08/18 02:48:52;;;;;;;65.75;43.50;;;;;;;16.47;100.00;101273.53;5046080;28;20036;-72
2022/08/18 02:51:18;;;;;;;62.92;43.13;;;;;;;16.45;100.00;101278.03;5050745;28;20025;-72
2022/08/18 02:53:45;;;;;;;59.50;42.47;;;;;;;16.40;100.00;101274.72;5041758;28;20049;-72
2022/08/18 02:56:26;;;;;;;59.25;40.65;;;;;;;16.39;100.00;101273.00;5051211;28;20040;-73
2022/08/18 02:59:06;;;;;;;57.53;39.45;;;;;;;16.34;100.00;101267.06;5051668;28;20029;-73
2022/08/18 03:01:37;;;;;;;58.03;40.67;;;;;;;16.30;100.00;101262.84;5049553;28;20025;-73
2022/08/18 03:04:05;;;;;;;65.65;42.90;;;;;;;16.32;100.00;101267.16;5051472;28;20060;-73
2022/08/18 03:06:31;;;;;;;58.28;40.17;;;;;;;16.32;100.00;101276.81;5051351;28;20384;-72
2022/08/18 03:08:56;;;;;;;65.38;42.08;;;;;;;16.30;100.00;101284.75;5037024;28;20029;-73
2022/08/18 03:11:25;;;;;;;64.03;42.63;;;;;;;16.28;100.00;101285.72;5047491;28;20032;-72
2022/08/18 03:13:51;;;;;;;59.88;41.60;;;;;;;16.24;100.00;101286.78;5052180;28;20021;-73
2022/08/18 03:16:17;;;;;;;67.00;42.58;;;;;;;16.20;100.00;101287.81;5050837;28;20033;-73
2022/08/18 03:18:44;;;;;;;63.25;41.58;;;;;;;16.17;100.00;101285.31;5048825;28;20385;-73
2022/08/18 03:21:13;;;;;;;62.40;41.60;;;;;;;16.16;100.00;101292.34;5051384;28;20155;-73
2022/08/18 03:23:40;;;;;;;63.25;42.67;;;;;;;16.13;100.00;101290.69;5038031;28;20374;-73
2022/08/18 03:26:10;;;;;;;67.55;44.00;;;;;;;16.13;100.00;101295.97;5043317;28;20013;-73
2022/08/18 03:28:36;;;;;;;68.97;43.70;;;;;;;16.12;100.00;101296.88;5045235;28;20040;-73
2022/08/18 03:31:02;;;;;;;64.22;42.83;;;;;;;16.13;100.00;101293.31;5034177;28;20045;-73
2022/08/18 03:33:27;;;;;;;68.72;43.33;;;;;;;16.11;100.00;101284.63;5047119;28;20044;-73
2022/08/18 03:35:52;;;;;;;64.90;42.05;;;;;;;16.07;100.00;101288.31;5052131;28;20031;-73
2022/08/18 03:38:17;;;;;;;65.40;42.67;;;;;;;16.10;100.00;101298.72;5046433;28;20029;-73
2022/08/18 03:40:50;;;;;;;64.78;42.70;;;;;;;16.03;100.00;101294.59;5050989;28;20461;-73
2022/08/18 03:43:15;;;;;;;61.85;41.33;;;;;;;16.00;100.00;101296.50;5050520;28;20189;-73
2022/08/18 03:45:40;;;;;;;60.72;40.20;;;;;;;15.96;100.00;101292.25;5043413;28;20112;-73
2022/08/18 03:48:06;;;;;;;59.95;40.53;;;;;;;15.93;100.00;101288.00;5042306;28;20114;-73
2022/08/18 03:50:31;;;;;;;60.35;39.92;;;;;;;15.99;100.00;101294.75;5050833;28;20372;-73
2022/08/18 03:52:58;;;;;;;66.63;41.42;;;;;;;15.99;100.00;101290.38;5049487;28;20017;-73
2022/08/18 03:55:26;;;;;;;63.00;41.42;;;;;;;16.01;100.00;101298.22;5045081;28;20025;-72
2022/08/18 03:57:54;;;;;;;57.17;39.67;;;;;;;15.95;100.00;101296.66;5043497;28;20388;-73
2022/08/18 04:00:20;;;;;;;56.63;40.15;;;;;;;15.94;100.00;101291.47;5050468;28;20106;-73
2022/08/18 04:02:45;;;;;;;59.20;40.17;;;;;;;15.95;100.00;101295.81;5051237;28;20025;-73
2022/08/18 04:05:13;;;;;;;64.68;41.53;;;;;;;15.91;100.00;101293.28;5034208;28;20035;-73
2022/08/18 04:07:38;;;;;;;65.28;42.10;;;;;;;15.98;100.00;101293.06;5035732;28;20056;-73
2022/08/18 04:10:04;;;;;;;65.35;42.05;;;;;;;16.04;100.00;101285.78;5039018;28;20048;-73
2022/08/18 04:12:30;;;;;;;64.68;41.33;;;;;;;16.11;100.00;101289.88;5050584;28;20051;-73
2022/08/18 04:14:55;;;;;;;68.32;40.88;;;;;;;16.13;100.00;101289.84;5039814;28;20075;-73
2022/08/18 04:17:24;;;;;;;61.63;40.75;;;;;;;16.14;100.00;101286.28;5050748;28;20017;-72
2022/08/18 04:19:51;;;;;;;63.17;41.95;;;;;;;16.17;100.00;101293.22;5051104;28;20425;-73
2022/08/18 04:22:17;;;;;;;66.95;43.70;;;;;;;16.21;100.00;101292.16;5046128;28;20032;-73
2022/08/18 04:24:43;;;;;;;62.80;42.17;;;;;;;16.22;100.00;101289.47;5045247;28;20025;-73
2022/08/18 04:27:08;;;;;;;56.80;39.08;;;;;;;16.20;100.00;101291.31;5037416;28;20052;-73
2022/08/18 04:29:33;;;;;;;63.45;43.13;;;;;;;16.24;100.00;101294.66;5050096;28;20578;-73
2022/08/18 04:32:04;;;;;;;60.47;41.25;;;;;;;16.26;100.00;101283.19;5051725;28;20050;-73
2022/08/18 04:34:32;;;;;;;75.95;45.97;;;;;;;16.29;100.00;101288.31;5040809;28;20148;-73
2022/08/18 04:36:57;;;;;;;75.50;46.83;;;;;;;16.32;100.00;101289.97;5052032;28;20060;-73
2022/08/18 04:39:22;;;;;;;70.90;44.53;;;;;;;16.30;100.00;101290.03;5037608;28;20053;-72
2022/08/18 04:41:49;;;;;;;64.95;42.10;;;;;;;16.36;100.00;101295.03;5042700;28;20033;-73
2022/08/18 04:44:16;;;;;;;66.70;43.75;;;;;;;16.38;100.00;101303.75;5053814;28;20041;-73
2022/08/18 04:46:50;;;;;;;71.25;45.65;;;;;;;16.43;100.00;101308.81;5055217;28;20048;-73
2022/08/18 04:49:17;;;;;;;68.82;44.78;;;;;;;16.45;100.00;101304.34;5048916;28;20033;-73
2022/08/18 04:54:37;;;;;;;70.53;45.53;;;;;;;16.46;100.00;101311.31;5042498;28;20130;-73
2022/08/18 04:57:09;;;;;;;76.38;45.78;;;;;;;16.52;100.00;101318.13;5048472;28;20171;-73
2022/08/18 04:59:36;;;;;;;76.23;47.40;;;;;;;16.56;100.00;101303.91;5054104;28;20025;-73
2022/08/18 05:02:07;;;;;;;75.47;45.05;;;;;;;16.62;100.00;101301.03;5054383;28;20036;-72
2022/08/18 05:04:33;;;;;;;72.90;45.22;;;;;;;16.63;100.00;101305.34;5042402;28;20036;-73
2022/08/18 05:07:00;;;;;;;69.70;44.45;;;;;;;16.66;100.00;101310.50;5054218;28;20428;-73
2022/08/18 05:09:25;;;;;;;78.80;47.35;;;;;;;16.66;100.00;101317.53;5053670;28;20029;-73
2022/08/18 05:11:51;;;;;;;77.55;46.25;;;;;;;16.69;100.00;101323.53;5054060;28;20024;-73
2022/08/18 05:14:16;;;;;;;74.20;45.95;;;;;;;16.70;100.00;101327.88;5042619;28;20071;-73
2022/08/18 05:16:42;;;;;;;73.97;44.88;;;;;;;16.71;100.00;101321.69;5051582;28;20044;-73
2022/08/18 05:19:10;;;;;;;70.10;43.50;;;;;;;16.77;100.00;101323.25;5043849;28;20030;-73
2022/08/18 05:21:37;;;;;;;72.93;45.63;;;;;;;16.80;100.00;101323.97;5050671;28;20029;-73
2022/08/18 05:24:03;;;;;;;68.30;44.80;;;;;;;16.83;100.00;101330.88;5048002;28;20029;-73
2022/08/18 05:26:29;;;;;;;68.22;43.53;;;;;;;16.87;100.00;101327.19;5052350;28;20116;-73
2022/08/18 05:28:54;;;;;;;60.95;43.05;;;;;;;16.89;100.00;101319.25;5054073;28;20025;-73
2022/08/18 05:31:23;;;;;;;63.88;42.50;;;;;;;16.88;100.00;101318.41;5045703;28;20033;-73
2022/08/18 05:33:49;;;;;;;60.40;41.30;;;;;;;16.86;100.00;101314.97;5042959;28;20025;-73
2022/08/18 05:36:23;;;;;;;55.67;40.47;;;;;;;16.93;100.00;101326.94;5054407;28;20025;-73
2022/08/18 05:39:14;;;;;;;58.35;40.92;;;;;;;16.97;100.00;101331.19;5050022;28;20021;-73
2022/08/18 05:41:43;;;;;;;54.10;38.97;;;;;;;17.04;100.00;101331.78;5039043;28;20026;-73
2022/08/18 05:44:13;;;;;;;56.67;39.13;;;;;;;17.03;100.00;101325.63;5050686;28;20059;-73
2022/08/18 05:46:53;;;;;;;57.30;40.33;;;;;;;17.06;100.00;101325.50;5045809;28;20032;-73
2022/08/18 05:49:19;;;;;;;54.92;38.75;;;;;;;17.09;100.00;101333.25;5041638;28;20021;-73
2022/08/18 05:51:49;;;;;;;54.97;38.35;;;;;;;17.13;100.00;101334.00;5053875;28;20058;-73
2022/08/18 05:57:06;;;;;;;57.78;40.03;;;;;;;17.13;100.00;101336.63;5035375;28;20393;-73
2022/08/18 05:59:36;;;;;;;57.00;40.55;;;;;;;17.15;100.00;101342.69;5045177;28;20013;-73
2022/08/18 06:02:07;;;;;;;54.67;38.63;;;;;;;17.28;100.00;101335.97;5041819;28;20033;-73
2022/08/18 06:04:47;;;;;;;54.45;39.20;;;;;;;17.33;100.00;101341.06;5050801;28;20048;-73
2022/08/18 06:07:17;;;;;;;52.67;38.15;;;;;;;17.39;100.00;101345.19;5053232;28;20117;-73
2022/08/18 06:09:51;;;;;;;50.20;38.10;;;;;;;17.43;100.00;101342.38;5043369;28;20025;-73
2022/08/18 06:12:34;;;;;;;56.40;37.58;;;;;;;17.50;100.00;101338.53;5049112;28;20203;-73
2022/08/18 06:15:14;;;;;;;52.00;37.15;;;;;;;17.48;100.00;101337.72;5051155;28;20125;-73
2022/08/18 06:17:52;;;;;;;53.58;37.97;;;;;;;17.57;100.00;101333.84;5043745;28;20014;-72
2022/08/18 06:20:40;;;;;;;48.13;35.67;;;;;;;17.66;100.00;101335.22;5038930;28;20051;-73
2022/08/18 06:23:41;;;;;;;51.78;37.38;;;;;;;17.79;100.00;101333.75;5044275;28;20029;-74
2022/08/18 06:26:47;;;;;;;48.28;35.22;;;;;;;17.93;100.00;101352.44;5007733;28;20064;-74
2022/08/18 06:29:38;;;;;;;50.67;37.03;;;;;;;17.84;100.00;101354.63;4951555;28;20039;-73
2022/08/18 06:32:19;;;;;;;53.75;37.92;;;;;;;17.82;100.00;101352.09;4949662;28;20043;-73
2022/08/18 06:35:07;;;;;;;51.05;37.40;;;;;;;17.92;100.00;101352.50;5026623;28;20122;-74
2022/08/18 06:40:28;;;;;;;50.58;37.03;;;;;;;17.95;100.00;101353.22;5047048;28;20032;-74
2022/08/18 06:42:53;;;;;;;48.97;37.00;;;;;;;18.02;100.00;101357.28;5040240;28;20404;-74
2022/08/18 06:45:22;;;;;;;50.92;38.67;;;;;;;18.06;100.00;101357.16;5049372;28;20037;-74
2022/08/18 06:48:10;;;;;;;52.72;38.13;;;;;;;18.09;100.00;101357.88;5039996;28;20063;-74
2022/08/18 06:50:44;;;;;;;56.17;38.88;;;;;;;18.09;100.00;101367.56;5040627;28;20136;-74
2022/08/18 06:53:09;;;;;;;50.95;36.53;;;;;;;18.06;100.00;101365.06;5052199;28;20029;-74
2022/08/18 06:55:43;;;;;;;54.35;36.53;;;;;;;18.17;100.00;101362.78;5050750;28;20102;-74
2022/08/18 06:58:12;;;;;;;54.17;37.03;;;;;;;18.16;100.00;101363.72;5051502;28;20036;-74
2022/08/18 07:00:41;;;;;;;48.88;37.33;;;;;;;18.31;100.00;101359.47;5051355;28;20440;-74
2022/08/18 07:03:17;;;;;;;49.60;36.47;;;;;;;18.54;100.00;101367.16;5051101;28;20120;-74
2022/08/18 07:06:17;;;;;;;47.83;37.05;;;;;;;18.68;100.00;101367.34;5052026;28;20531;-74
2022/08/18 07:08:44;;;;;;;47.25;35.13;;;;;;;18.66;100.00;101365.69;4978485;28;20045;-73
2022/08/18 07:11:16;;;;;;;49.83;36.33;;;;;;;18.68;100.00;101369.97;5051158;28;20074;-73
2022/08/18 07:13:44;;;;;;;45.57;34.50;;;;;;;18.75;100.00;101369.72;5052101;28;20027;-73
2022/08/18 07:16:30;;;;;;;45.90;34.30;;;;;;;18.81;100.00;101372.06;5051705;28;20068;-73
2022/08/18 07:19:19;;;;;;;43.03;33.80;;;;;;;18.87;100.00;101362.03;5051419;28;20024;-74
2022/08/18 07:21:46;;;;;;;43.40;32.85;;;;;;;19.03;100.00;101371.81;5051579;28;20552;-73
2022/08/18 07:24:24;;;;;;;42.50;33.97;;;;;;;19.19;100.00;101367.47;5050926;28;20424;-73
2022/08/18 07:27:17;;;;;;;43.75;32.85;;;;;;;19.31;100.00;101379.22;5051846;28;20025;-73
2022/08/18 07:30:04;;;;;;;39.38;32.85;;;;;;;19.32;100.00;101371.19;5022191;28;20098;-73
2022/08/18 07:32:39;;;;;;;39.30;32.35;;;;;;;19.27;100.00;101372.38;5028416;28;20082;-73
2022/08/18 07:35:08;;;;;;;41.92;31.70;;;;;;;19.21;100.00;101376.19;5052157;28;20108;-73
2022/08/18 07:37:47;;;;;;;40.58;32.25;;;;;;;19.22;100.00;101377.88;5050106;28;20060;-73
2022/08/18 07:40:18;;;;;;;41.75;31.70;;;;;;;19.21;100.00;101372.69;5050478;28;20024;-73
2022/08/18 07:42:53;;;;;;;37.92;30.08;;;;;;;19.00;100.00;101366.69;5050257;28;20049;-73
2022/08/18 07:45:25;;;;;;;36.70;29.75;;;;;;;18.90;100.00;101375.09;5050215;28;20033;-73
2022/08/18 07:48:03;;;;;;;37.70;29.83;;;;;;;19.11;100.00;101374.94;5051640;28;20024;-73
2022/08/18 07:50:38;;;;;;;33.47;27.92;;;;;;;19.37;100.00;101379.75;5050796;28;20071;-73
2022/08/18 07:53:24;;;;;;;36.53;29.08;;;;;;;19.57;100.00;101378.72;5050616;28;20032;-73
2022/08/18 07:55:58;;;;;;;34.30;28.05;;;;;;;19.81;100.00;101367.78;5051416;28;20025;-73
2022/08/18 07:58:33;;;;;;;32.85;27.20;;;;;;;20.03;100.00;101378.06;5049355;28;20025;-73
2022/08/18 08:01:34;;;;;;;32.70;26.30;;;;;;;20.09;100.00;101375.09;5050177;28;20061;-73
2022/08/18 08:04:00;;;;;;;29.00;23.70;;;;;;;19.96;100.00;101376.69;5050292;28;20063;-76
2022/08/18 08:06:42;;;;;;;26.93;23.37;;;;;;;19.86;100.00;101369.25;5051141;28;20021;-75
2022/08/18 08:09:29;;;;;;;26.92;24.05;;;;;;;19.94;100.00;101374.13;5055361;28;20377;-76
2022/08/18 08:12:04;;;;;;;29.23;23.27;;;;;;;19.86;100.00;101377.19;5029781;28;20120;-76
2022/08/18 08:14:41;;;;;;;29.85;24.63;;;;;;;19.86;100.00;101382.50;5047689;28;20556;-74
2022/08/18 08:17:31;;;;;;;30.48;24.33;;;;;;;19.92;100.00;101378.66;5033091;28;20092;-74
2022/08/18 08:20:08;;;;;;;26.48;22.95;;;;;;;20.01;100.00;101379.94;5045454;28;20075;-74
2022/08/18 08:22:46;;;;;;;31.08;24.90;;;;;;;19.98;100.00;101375.69;5051588;28;20591;-74
2022/08/18 08:25:14;;;;;;;26.73;23.05;;;;;;;20.15;100.00;101388.00;5039654;28;20037;-74
2022/08/18 08:28:06;;;;;;;29.75;23.65;;;;;;;20.20;100.00;101385.94;5049046;28;20408;-73
2022/08/18 08:30:34;;;;;;;25.23;22.52;;;;;;;20.18;100.00;101385.19;5040009;28;20032;-73
2022/08/18 08:33:10;;;;;;;24.95;21.55;;;;;;;20.38;100.00;101384.06;5047511;28;20078;-74
2022/08/18 08:35:44;;;;;;;24.33;21.73;;;;;;;20.58;100.00;101382.97;5053882;28;20128;-74
2022/08/18 08:38:31;;;;;;;28.38;24.33;;;;;;;20.78;100.00;101385.34;5047514;28;20068;-74
2022/08/18 08:41:02;;;;;;;25.80;21.23;;;;;;;20.91;100.00;101380.19;5039799;28;20108;-73
2022/08/18 08:43:36;;;;;;;24.92;21.83;;;;;;;21.08;100.00;101381.00;5039252;28;20067;-74
2022/08/18 08:46:10;;;;;;;22.17;19.88;;;;;;;21.38;100.00;101384.47;5038911;28;20378;-74
2022/08/18 08:48:42;;;;;;;21.08;18.98;;;;;;;21.81;99.06;101381.88;5049005;28;20033;-74
2022/08/18 08:51:21;;;;;;;25.88;19.85;;;;;;;22.04;94.27;101396.38;5054497;28;20021;-74
2022/08/18 08:53:53;;;;;;;22.42;19.58;;;;;;;21.97;96.33;101392.38;5054310;28;20112;-74
2022/08/18 08:56:32;;;;;;;21.05;18.95;;;;;;;21.64;98.91;101390.88;5053318;28;20025;-73
2022/08/18 08:59:03;;;;;;;22.27;19.90;;;;;;;21.30;100.00;101393.84;5039024;28;20072;-74
2022/08/18 09:01:34;;;;;;;19.67;17.60;;;;;;;21.27;100.00;101392.22;5052933;28;20075;-74
2022/08/18 09:04:18;;;;;;;22.42;17.75;;;;;;;21.28;100.00;101381.50;5053521;28;20021;-74
2022/08/18 09:06:52;;;;;;;21.90;19.58;;;;;;;21.28;99.76;101386.81;5036892;28;20033;-74
2022/08/18 09:09:36;;;;;;;20.42;17.25;;;;;;;21.42;97.94;101391.34;5039846;28;20104;-74
2022/08/18 09:12:01;;;;;;;18.70;16.80;;;;;;;21.44;96.28;101388.56;5033984;28;20033;-74
2022/08/18 09:14:40;;;;;;;17.87;16.07;;;;;;;21.37;98.85;101395.19;5047743;28;20025;-74
2022/08/18 09:17:23;;;;;;;18.92;17.23;;;;;;;21.51;98.33;101390.75;5040174;28;20071;-74
2022/08/18 09:20:05;;;;;;;18.33;16.45;;;;;;;21.99;95.88;101387.84;5050481;28;20480;-74
2022/08/18 09:22:50;;;;;;;19.00;17.00;;;;;;;22.48;97.69;101387.41;5044170;28;20052;-74
2022/08/18 09:25:43;;;;;;;16.20;13.90;;;;;;;22.75;92.53;101386.53;5048316;28;20021;-73
2022/08/18 09:28:41;;;;;;;17.95;15.40;;;;;;;22.90;84.74;101388.19;5036354;28;20041;-74
2022/08/18 09:31:06;;;;;;;16.50;14.85;;;;;;;23.45;85.41;101381.81;5041649;28;20056;-73
2022/08/18 09:33:53;;;;;;;17.27;13.97;;;;;;;23.66;88.14;101370.63;5047238;28;20075;-74
2022/08/18 09:36:45;;;;;;;20.17;13.35;;;;;;;23.64;88.62;101370.72;5053240;28;20036;-73
2022/08/18 09:42:46;;;;;;;13.13;11.82;;;;;;;22.82;87.17;101386.00;5051851;28;20055;-73
2022/08/18 09:45:30;;;;;;;14.63;11.73;;;;;;;22.60;90.24;101383.94;5050887;28;20048;-74
2022/08/18 09:48:22;;;;;;;13.85;12.45;;;;;;;22.54;92.13;101381.69;5042673;28;20025;-74
2022/08/18 09:51:19;;;;;;;15.93;14.27;;;;;;;22.61;89.69;101371.50;5035696;28;20056;-75
2022/08/18 09:53:44;;;;;;;15.18;13.68;;;;;;;22.72;88.28;101379.59;5046196;28;20033;-75
2022/08/18 09:56:13;;;;;;;18.67;14.43;;;;;;;22.75;87.86;101370.59;5031862;28;20088;-75
2022/08/18 09:58:52;;;;;;;16.27;14.55;;;;;;;22.66;85.79;101380.88;5045622;28;20033;-75
2022/08/18 10:01:30;;;;;;;16.08;14.52;;;;;;;22.47;84.41;101385.69;5042478;28;20025;-75
2022/08/18 10:04:14;;;;;;;17.05;15.32;;;;;;;22.39;87.68;101382.66;5038747;28;20071;-75
2022/08/18 10:06:43;;;;;;;;;;;;;;;22.44;91.57;101380.59;5034646;28;20111;-75
2022/08/18 10:09:29;;;;;;;15.35;13.02;;;;;;;22.31;88.76;101377.88;5043914;28;19959;-72
2022/08/18 10:12:17;;;;;;;14.55;12.88;;;;;;;22.44;86.62;101380.59;5037840;28;20029;-72
2022/08/18 10:14:52;;;;;;;13.45;12.07;;;;;;;22.31;83.63;101372.56;5052176;28;20090;-72
2022/08/18 10:17:19;;;;;;;15.02;13.23;;;;;;;22.26;80.70;101371.13;5052270;28;20025;-73
2022/08/18 10:19:52;;;;;;;13.70;11.68;;;;;;;22.24;82.94;101370.41;5052875;28;20025;-72
2022/08/18 10:22:37;;;;;;;12.88;11.52;;;;;;;22.30;86.46;101373.50;5051517;28;20041;-72
2022/08/18 10:25:03;;;;;;;12.60;11.30;;;;;;;22.66;85.84;101375.56;5052593;28;20029;-72
2022/08/18 10:27:34;;;;;;;15.23;11.63;;;;;;;23.40;86.85;101373.28;5051428;28;20025;-73
2022/08/18 10:30:00;;;;;;;13.05;11.38;;;;;;;23.94;76.16;101370.41;5052602;28;20028;-72
2022/08/18 10:32:42;;;;;;;12.07;10.80;;;;;;;24.14;78.68;101357.47;5052074;28;20539;-73
2022/08/18 10:35:40;;;;;;;11.80;10.60;;;;;;;24.26;79.21;101359.22;5051716;28;20028;-72
2022/08/18 10:38:20;;;;;;;12.68;10.90;;;;;;;24.21;78.69;101345.41;5008198;28;20511;-72
2022/08/18 10:41:18;;;;;;;12.05;10.38;;;;;;;24.44;82.31;101360.59;5052604;28;20027;-72
2022/08/18 10:43:47;;;;;;;14.85;11.02;;;;;;;24.72;77.39;101354.06;5046601;28;20037;-73
2022/08/18 10:46:19;;;;;;;11.65;9.73;;;;;;;24.81;75.27;101355.16;5052196;28;20079;-72
2022/08/18 10:48:59;;;;;;;11.55;10.40;;;;;;;24.99;76.23;101353.78;5051633;28;20112;-72
2022/08/18 10:51:32;;;;;;;11.73;10.63;;;;;;;24.99;70.46;101359.13;5051554;28;20025;-72
2022/08/18 10:54:15;;;;;;;;;;;;;;;25.05;77.21;101363.16;5052663;28;20052;-73
2022/08/18 10:56:49;;;;;;;11.50;10.30;;;;;;;24.88;71.79;101358.22;5051295;28;19975;-73
2022/08/18 10:59:21;;;;;;;11.10;8.93;;;;;;;24.95;73.59;101357.66;5051981;28;20037;-73
2022/08/18 11:01:53;;;;;;;10.70;9.65;;;;;;;25.03;76.47;101357.06;5052109;28;20017;-72
2022/08/18 11:04:35;;;;;;;11.57;10.48;;;;;;;25.12;71.47;101360.91;5050587;28;20037;-73
2022/08/18 11:07:18;;;;;;;11.20;10.13;;;;;;;25.10;69.93;101365.44;5051775;28;20017;-73
2022/08/18 11:09:46;;;;;;;21.20;9.57;;;;;;;25.21;70.65;101361.03;5051337;28;20033;-73
2022/08/18 11:12:12;;;;;;;9.73;8.70;;;;;;;25.12;73.54;101359.06;5051719;28;20476;-73
2022/08/18 11:14:58;;;;;;;10.75;8.75;;;;;;;25.11;69.00;101353.81;5051291;28;20456;-72
2022/08/18 11:17:43;;;;;;;10.10;9.10;;;;;;;24.99;69.75;101345.78;5050747;28;20021;-73
2022/08/18 11:20:11;;;;;;;11.00;9.52;;;;;;;24.67;69.55;101347.38;5051968;28;20025;-73
2022/08/18 11:22:37;;;;;;;10.25;9.18;;;;;;;24.53;64.75;101335.94;5051258;28;20412;-73
2022/08/18 11:25:18;;;;;;;10.23;9.13;;;;;;;24.62;67.56;101339.69;5051256;28;20017;-73
2022/08/18 11:27:46;;;;;;;10.25;8.20;;;;;;;25.19;68.76;101327.44;5051711;28;20051;-72
2022/08/18 11:30:13;;;;;;;8.70;7.78;;;;;;;26.06;66.76;101322.31;5051301;28;20464;-72
2022/08/18 11:32:40;;;;;;;11.57;8.00;;;;;;;26.88;67.42;101320.00;5050602;28;20075;-72
2022/08/18 11:35:15;;;;;;;10.73;7.95;;;;;;;27.57;60.59;101321.22;5051463;28;20112;-73
2022/08/18 11:37:40;;;;;;;10.60;9.45;;;;;;;27.88;58.67;101324.78;5050760;28;20025;-73
2022/08/18 11:40:18;;;;;;;10.77;9.50;;;;;;;27.76;55.42;101321.31;5051339;28;20036;-73
2022/08/18 11:42:52;;;;;;;8.82;8.00;;;;;;;27.68;59.50;101313.97;5051065;28;20067;-73
2022/08/18 11:45:22;;;;;;;12.05;9.15;;;;;;;27.73;59.01;101306.38;5050039;28;20029;-73
2022/08/18 11:48:16;;;;;;;8.75;7.57;;;;;;;27.84;56.94;101301.91;5051388;28;20381;-73